Terminal Aerodrome Forecast
Issued by NWS Tampa Bay Area, FL

Current Version | Previous Version | Text Only | Print | Product List | Glossary On
Versions: 1 2 3 4 5 6 7 8 9 10 11 12 13 14 15 16 17 18 19
063
FTUS42 KTBW 211130
TAFSRQ
TAF
KSRQ 211130Z 2112/2212 11006KT P6SM FEW035 BKN250
     FM211600 14008KT P6SM SCT035 BKN250
     FM212100 18009KT P6SM SCT040 BKN250
     FM220200 16006KT P6SM SCT035 BKN250
     FM220900 13008KT P6SM VCTS SCT025CB BKN120=

USA.gov is the U.S. government's official web portal to all federal, state and local government web resources and services.